createdAt,value
2022-08-05T00:02:07.200Z,100.00
2022-08-05T00:04:38.273Z,100.00
2022-08-05T00:07:58.729Z,100.00
2022-08-05T00:10:00.122Z,100.00
2022-08-05T00:12:28.168Z,100.00
2022-08-05T00:14:57.454Z,100.00
2022-08-05T00:17:27.172Z,100.00
2022-08-05T00:20:02.181Z,100.00
2022-08-05T00:22:32.909Z,100.00
2022-08-05T00:25:02.833Z,100.00
2022-08-05T00:27:38.260Z,100.00
2022-08-05T00:30:14.405Z,100.00
2022-08-05T00:32:44.171Z,100.00
2022-08-05T00:35:17.058Z,100.00
2022-08-05T00:37:53.414Z,100.00
2022-08-05T00:40:29.012Z,100.00
2022-08-05T00:43:01.606Z,100.00
2022-08-05T00:45:42.891Z,100.00
2022-08-05T00:48:15.655Z,100.00
2022-08-05T00:50:47.539Z,100.00
2022-08-05T00:54:00.680Z,100.00
2022-08-05T00:56:09.412Z,100.00
2022-08-05T00:58:37.810Z,100.00
2022-08-05T01:01:12.538Z,100.00
2022-08-05T01:03:40.946Z,100.00
2022-08-05T01:06:14.170Z,100.00
2022-08-05T01:08:47.548Z,100.00
2022-08-05T01:11:22.100Z,100.00
2022-08-05T01:14:03.297Z,100.00
2022-08-05T01:16:39.606Z,100.00
2022-08-05T01:19:56.116Z,100.00
2022-08-05T01:22:31.824Z,100.00
2022-08-05T01:25:39.595Z,100.00
2022-08-05T01:28:27.581Z,100.00
2022-08-05T01:31:03.105Z,100.00
2022-08-05T01:33:36.048Z,100.00
2022-08-05T01:36:16.004Z,100.00
2022-08-05T01:38:49.688Z,100.00
2022-08-05T01:41:25.893Z,100.00
2022-08-05T01:43:56.381Z,100.00
2022-08-05T01:46:43.051Z,100.00
2022-08-05T01:49:24.338Z,100.00
2022-08-05T01:52:01.084Z,100.00
2022-08-05T01:54:33.885Z,100.00
2022-08-05T01:58:29.870Z,100.00
2022-08-05T02:00:13.696Z,100.00
2022-08-05T02:02:55.218Z,100.00
2022-08-05T02:05:29.357Z,100.00
2022-08-05T02:08:01.997Z,100.00
2022-08-05T02:10:35.801Z,100.00
2022-08-05T02:13:16.548Z,100.00
2022-08-05T02:15:51.222Z,100.00
2022-08-05T02:18:35.009Z,100.00
2022-08-05T02:21:15.024Z,100.00
2022-08-05T02:23:49.632Z,100.00
2022-08-05T02:26:23.075Z,100.00
2022-08-05T02:28:59.458Z,100.00
2022-08-05T02:31:34.949Z,100.00
2022-08-05T02:34:11.657Z,100.00
2022-08-05T02:36:45.084Z,100.00
2022-08-05T02:39:22.528Z,100.00
2022-08-05T02:42:00.376Z,100.00
2022-08-05T02:44:35.020Z,100.00
2022-08-05T02:47:06.939Z,100.00
2022-08-05T02:49:40.835Z,100.00
2022-08-05T02:52:25.924Z,100.00
2022-08-05T02:55:05.669Z,100.00
2022-08-05T02:58:09.415Z,100.00
2022-08-05T03:00:32.989Z,100.00
2022-08-05T03:03:07.649Z,100.00
2022-08-05T03:06:53.576Z,100.00
2022-08-05T03:08:32.078Z,100.00
2022-08-05T03:11:56.702Z,100.00
2022-08-05T03:14:03.153Z,100.00
2022-08-05T03:16:35.822Z,100.00
2022-08-05T03:19:12.593Z,100.00
2022-08-05T03:21:49.852Z,100.00
2022-08-05T03:24:27.550Z,100.00
2022-08-05T03:27:02.985Z,100.00
2022-08-05T03:29:59.596Z,100.00
2022-08-05T03:32:30.897Z,100.00
2022-08-05T03:35:01.052Z,100.00
2022-08-05T03:37:45.806Z,100.00
2022-08-05T03:40:15.521Z,100.00
2022-08-05T03:42:56.581Z,100.00
2022-08-05T03:45:25.906Z,100.00
2022-08-05T03:47:56.809Z,100.00
2022-08-05T03:50:46.016Z,100.00
2022-08-05T03:55:00.074Z,100.00
2022-08-05T03:56:18.009Z,100.00
2022-08-05T03:59:04.458Z,100.00
2022-08-05T04:01:42.771Z,100.00
2022-08-05T04:04:14.869Z,100.00
2022-08-05T04:06:54.697Z,100.00
2022-08-05T04:09:26.296Z,100.00
2022-08-05T04:11:59.624Z,100.00
2022-08-05T04:14:30.296Z,100.00
2022-08-05T04:17:03.308Z,100.00
2022-08-05T04:19:43.317Z,100.00
2022-08-05T04:22:20.557Z,100.00
2022-08-05T04:24:52.632Z,100.00
2022-08-05T04:27:33.307Z,100.00
2022-08-05T04:30:13.259Z,100.00
2022-08-05T04:32:53.006Z,100.00
2022-08-05T04:35:21.912Z,100.00
2022-08-05T04:38:02.650Z,100.00
2022-08-05T04:40:36.104Z,100.00
2022-08-05T04:43:06.386Z,100.00
2022-08-05T04:45:48.151Z,100.00
2022-08-05T04:48:28.061Z,100.00
2022-08-05T04:51:03.593Z,100.00
2022-08-05T04:53:42.343Z,100.00
2022-08-05T04:56:32.912Z,100.00
2022-08-05T04:58:59.918Z,100.00
2022-08-05T05:02:07.094Z,100.00
2022-08-05T05:04:35.773Z,100.00
2022-08-05T05:07:09.496Z,100.00
2022-08-05T05:09:38.951Z,100.00
2022-08-05T05:12:09.032Z,100.00
2022-08-05T05:14:49.265Z,100.00
2022-08-05T05:17:23.388Z,100.00
2022-08-05T05:19:55.016Z,100.00
2022-08-05T05:22:26.998Z,100.00
2022-08-05T05:25:00.282Z,100.00
2022-08-05T05:27:41.225Z,100.00
2022-08-05T05:30:29.237Z,100.00
2022-08-05T05:33:01.014Z,100.00
2022-08-05T05:35:39.565Z,100.00
2022-08-05T05:38:13.112Z,100.00
2022-08-05T05:40:49.772Z,100.00
2022-08-05T05:43:54.267Z,100.00
2022-08-05T05:46:18.133Z,100.00
2022-08-05T05:48:48.659Z,100.00
2022-08-05T05:51:24.240Z,100.00
2022-08-05T05:53:59.527Z,100.00
2022-08-05T05:56:34.741Z,100.00
2022-08-05T05:59:05.896Z,100.00
2022-08-05T06:01:37.995Z,100.00
2022-08-05T06:04:11.844Z,100.00
2022-08-05T06:06:47.805Z,100.00
2022-08-05T06:09:25.858Z,100.00
2022-08-05T06:12:12.142Z,100.00
2022-08-05T06:14:48.470Z,100.00
2022-08-05T06:17:24.488Z,100.00
2022-08-05T06:20:01.637Z,100.00
2022-08-05T06:22:34.021Z,100.00
2022-08-05T06:25:59.717Z,100.00
2022-08-05T06:28:10.719Z,100.00
2022-08-05T06:30:42.947Z,100.00
2022-08-05T06:33:12.953Z,100.00
2022-08-05T06:36:07.685Z,100.00
2022-08-05T06:38:39.049Z,100.00
2022-08-05T06:41:17.240Z,100.00
2022-08-05T06:43:57.633Z,100.00
2022-08-05T06:46:30.624Z,100.00
2022-08-05T06:49:01.365Z,100.00
2022-08-05T06:51:30.725Z,100.00
2022-08-05T06:53:59.879Z,100.00
2022-08-05T06:56:34.365Z,100.00
2022-08-05T06:59:09.730Z,100.00
2022-08-05T07:01:40.780Z,100.00
2022-08-05T07:04:13.958Z,100.00
2022-08-05T07:06:44.224Z,100.00
2022-08-05T07:09:12.027Z,93.84
2022-08-05T07:11:43.068Z,94.25
2022-08-05T07:14:38.321Z,94.48
2022-08-05T07:17:56.321Z,99.36
2022-08-05T07:20:31.396Z,94.20
2022-08-05T07:22:47.832Z,88.90
2022-08-05T07:25:55.601Z,88.16
2022-08-05T07:28:11.654Z,94.91
2022-08-05T07:30:43.298Z,91.52
2022-08-05T07:33:18.278Z,93.36
2022-08-05T07:36:01.995Z,91.49
2022-08-05T07:38:43.217Z,90.18
2022-08-05T07:41:35.245Z,84.97
2022-08-05T07:44:05.808Z,86.66
2022-08-05T07:46:46.717Z,86.81
2022-08-05T07:49:18.887Z,80.04
2022-08-05T07:51:53.171Z,82.16
2022-08-05T07:54:31.169Z,75.03
2022-08-05T07:57:16.854Z,77.71
2022-08-05T07:59:50.217Z,74.10
2022-08-05T08:02:19.471Z,74.03
2022-08-05T08:04:59.257Z,76.81
2022-08-05T08:07:28.403Z,75.79
2022-08-05T08:09:56.779Z,76.44
2022-08-05T08:12:33.376Z,78.67
2022-08-05T08:15:14.324Z,78.76
2022-08-05T08:17:52.886Z,77.48
2022-08-05T08:20:59.994Z,77.20
2022-08-05T08:24:00.407Z,76.83
2022-08-05T08:25:59.830Z,71.24
2022-08-05T08:28:36.566Z,72.95
2022-08-05T08:31:05.902Z,75.37
2022-08-05T08:33:36.141Z,72.82
2022-08-05T08:36:29.764Z,73.57
2022-08-05T08:38:55.498Z,78.63
2022-08-05T08:41:52.392Z,80.23
2022-08-05T08:45:19.143Z,76.06
2022-08-05T08:47:47.681Z,73.99
2022-08-05T08:50:30.935Z,71.15
2022-08-05T08:53:02.127Z,70.10
2022-08-05T08:56:03.003Z,64.50
2022-08-05T08:58:43.034Z,65.31
2022-08-05T09:01:16.017Z,60.30
2022-08-05T09:03:46.376Z,59.94
2022-08-05T09:06:21.377Z,60.98
2022-08-05T09:08:52.193Z,61.54
2022-08-05T09:11:51.322Z,57.68
2022-08-05T09:14:58.676Z,59.05
2022-08-05T09:17:00.990Z,58.84
2022-08-05T09:19:36.854Z,59.06
2022-08-05T09:22:30.733Z,59.32
2022-08-05T09:25:01.061Z,59.36
2022-08-05T09:28:04.049Z,59.05
2022-08-05T09:30:25.667Z,58.44
2022-08-05T09:33:05.070Z,55.30
2022-08-05T09:35:32.979Z,56.14
2022-08-05T09:38:16.439Z,56.95
2022-08-05T09:40:52.689Z,59.00
2022-08-05T09:43:42.193Z,58.59
2022-08-05T09:46:28.420Z,57.39
2022-08-05T09:49:07.576Z,57.55
2022-08-05T09:51:49.386Z,55.90
2022-08-05T09:54:32.252Z,57.07
2022-08-05T09:57:01.483Z,59.07
2022-08-05T09:59:35.203Z,57.97
2022-08-05T10:02:06.140Z,54.42
2022-08-05T10:04:39.639Z,55.41
2022-08-05T10:07:20.281Z,54.83
2022-08-05T10:10:13.749Z,52.16
2022-08-05T10:12:49.618Z,54.17
2022-08-05T10:15:22.870Z,53.37
2022-08-05T10:18:12.557Z,52.44
2022-08-05T10:20:48.043Z,52.21
2022-08-05T10:23:33.890Z,52.75
2022-08-05T10:26:14.465Z,54.63
2022-08-05T10:28:46.280Z,54.38
2022-08-05T10:32:48.712Z,54.38
2022-08-05T10:34:08.066Z,54.41
2022-08-05T10:36:37.319Z,55.79
2022-08-05T10:39:10.441Z,57.30
2022-08-05T10:41:48.778Z,58.39
2022-08-05T10:44:20.247Z,56.70
2022-08-05T10:46:54.105Z,54.56
2022-08-05T10:49:27.514Z,54.31
2022-08-05T10:52:05.409Z,52.87
2022-08-05T10:54:56.053Z,52.86
2022-08-05T10:57:34.006Z,54.05
2022-08-05T11:00:19.652Z,55.49
2022-08-05T11:03:26.006Z,59.18
2022-08-05T11:06:15.812Z,60.71
2022-08-05T11:09:45.224Z,59.66
2022-08-05T11:12:50.548Z,59.84
2022-08-05T11:15:59.235Z,56.95
2022-08-05T11:18:29.992Z,56.82
2022-08-05T11:21:02.200Z,60.08
2022-08-05T11:24:04.619Z,64.61
2022-08-05T11:26:33.422Z,69.70
2022-08-05T11:29:12.668Z,76.95
2022-08-05T11:31:57.571Z,82.91
2022-08-05T11:34:51.393Z,82.53
2022-08-05T11:38:30.622Z,84.00
2022-08-05T11:41:03.385Z,79.71
2022-08-05T11:44:04.897Z,78.53
2022-08-05T11:46:37.708Z,84.44
2022-08-05T11:49:13.375Z,87.27
2022-08-05T11:51:49.347Z,88.16
2022-08-05T11:54:33.737Z,91.99
2022-08-05T11:57:08.700Z,90.28
2022-08-05T11:59:54.808Z,89.67
2022-08-05T12:02:32.788Z,89.33
2022-08-05T12:05:07.728Z,94.71
2022-08-05T12:08:03.275Z,89.55
2022-08-05T12:10:39.005Z,89.49
2022-08-05T12:13:16.428Z,90.43
2022-08-05T12:15:49.848Z,96.56
2022-08-05T12:18:20.781Z,98.26
2022-08-05T12:20:52.390Z,98.95
2022-08-05T12:23:20.398Z,100.00
2022-08-05T12:25:53.363Z,100.00
2022-08-05T12:28:35.095Z,98.90
2022-08-05T12:31:07.976Z,100.00
2022-08-05T12:33:39.654Z,100.00
2022-08-05T12:36:13.741Z,100.00
2022-08-05T12:38:46.437Z,100.00
2022-08-05T12:41:18.051Z,100.00
2022-08-05T12:43:56.317Z,100.00
2022-08-05T12:46:28.921Z,100.00
2022-08-05T12:49:00.266Z,100.00
2022-08-05T12:52:14.465Z,100.00
2022-08-05T12:54:26.688Z,100.00
2022-08-05T12:56:55.904Z,100.00
2022-08-05T12:59:46.402Z,100.00
2022-08-05T13:02:14.808Z,100.00
2022-08-05T13:04:54.392Z,100.00
2022-08-05T13:07:55.912Z,100.00
2022-08-05T13:10:19.931Z,100.00
2022-08-05T13:12:51.163Z,100.00
2022-08-05T13:15:35.915Z,100.00
2022-08-05T13:18:18.760Z,100.00
2022-08-05T13:20:51.016Z,100.00
2022-08-05T13:23:22.468Z,100.00
2022-08-05T13:25:59.258Z,100.00
2022-08-05T13:28:32.229Z,100.00
2022-08-05T13:31:10.947Z,100.00
2022-08-05T13:34:23.243Z,100.00
2022-08-05T13:36:36.735Z,100.00
2022-08-05T13:39:08.408Z,100.00
2022-08-05T13:41:54.807Z,100.00
2022-08-05T13:44:23.830Z,100.00
2022-08-05T13:47:02.467Z,100.00
2022-08-05T13:49:46.490Z,100.00
2022-08-05T13:52:29.478Z,100.00
2022-08-05T13:54:59.277Z,100.00
2022-08-05T13:57:51.548Z,100.00
2022-08-05T14:00:27.331Z,100.00
2022-08-05T14:02:56.193Z,100.00
2022-08-05T14:05:48.243Z,100.00
2022-08-05T14:08:21.421Z,100.00
2022-08-05T14:11:19.942Z,100.00
2022-08-05T14:13:48.427Z,100.00
2022-08-05T14:16:20.317Z,100.00
2022-08-05T14:19:13.493Z,100.00
2022-08-05T14:22:08.983Z,100.00
2022-08-05T14:24:31.633Z,100.00
2022-08-05T14:27:17.542Z,100.00
2022-08-05T14:29:46.134Z,100.00
2022-08-05T14:32:27.196Z,100.00
2022-08-05T14:34:57.004Z,100.00
2022-08-05T14:37:48.039Z,100.00
2022-08-05T14:40:18.178Z,100.00
2022-08-05T14:42:49.095Z,100.00
2022-08-05T14:45:17.103Z,100.00
2022-08-05T14:48:02.588Z,100.00
2022-08-05T14:50:39.837Z,100.00
2022-08-05T14:53:08.834Z,100.00
2022-08-05T14:55:41.925Z,100.00
2022-08-05T14:58:13.909Z,100.00
2022-08-05T15:00:59.457Z,100.00
2022-08-05T15:03:34.066Z,100.00
2022-08-05T15:06:15.171Z,100.00
2022-08-05T15:08:58.104Z,100.00
2022-08-05T15:11:53.286Z,100.00
2022-08-05T15:14:43.111Z,100.00
2022-08-05T15:17:45.738Z,100.00
2022-08-05T15:20:15.670Z,100.00
2022-08-05T15:22:54.179Z,100.00
2022-08-05T15:25:41.082Z,100.00
2022-08-05T15:28:18.382Z,100.00
2022-08-05T15:30:46.793Z,100.00
2022-08-05T15:34:04.376Z,100.00
2022-08-05T15:36:17.782Z,100.00
2022-08-05T15:39:07.605Z,100.00
2022-08-05T15:41:55.698Z,100.00
2022-08-05T15:44:30.806Z,100.00
2022-08-05T15:46:59.412Z,100.00
2022-08-05T15:49:55.337Z,100.00
2022-08-05T15:52:52.060Z,100.00
2022-08-05T15:55:10.374Z,100.00
2022-08-05T15:57:45.105Z,100.00
2022-08-05T16:00:25.983Z,100.00
2022-08-05T16:03:03.292Z,100.00
2022-08-05T16:05:31.391Z,100.00
2022-08-05T16:08:00.191Z,100.00
2022-08-05T16:10:30.403Z,100.00
2022-08-05T16:12:58.869Z,100.00
2022-08-05T16:15:32.493Z,100.00
2022-08-05T16:18:04.349Z,100.00
2022-08-05T16:20:37.356Z,100.00
2022-08-05T16:23:05.339Z,100.00
2022-08-05T16:25:36.889Z,100.00
2022-08-05T16:28:06.493Z,100.00
2022-08-05T16:30:39.249Z,100.00
2022-08-05T16:33:11.636Z,100.00
2022-08-05T16:35:44.656Z,100.00
2022-08-05T16:38:25.575Z,100.00
2022-08-05T16:41:01.305Z,100.00
2022-08-05T16:43:34.097Z,100.00
2022-08-05T16:46:24.017Z,100.00
2022-08-05T16:48:58.358Z,100.00
2022-08-05T16:51:31.053Z,100.00
2022-08-05T16:54:24.829Z,100.00
2022-08-05T16:56:58.759Z,100.00
2022-08-05T16:59:27.901Z,100.00
2022-08-05T17:02:02.364Z,100.00
2022-08-05T17:04:32.393Z,100.00
2022-08-05T17:07:03.115Z,100.00
2022-08-05T17:09:38.882Z,100.00
2022-08-05T17:12:51.059Z,100.00
2022-08-05T17:15:15.833Z,100.00
2022-08-05T17:17:55.079Z,100.00
2022-08-05T17:20:23.374Z,100.00
2022-08-05T17:22:55.790Z,100.00
2022-08-05T17:25:39.629Z,100.00
2022-08-05T17:28:09.285Z,100.00
2022-08-05T17:30:42.575Z,100.00
2022-08-05T17:33:22.118Z,100.00
2022-08-05T17:36:07.687Z,100.00
2022-08-05T17:38:39.899Z,100.00
2022-08-05T17:41:11.620Z,100.00
2022-08-05T17:43:56.603Z,100.00
2022-08-05T17:46:26.003Z,100.00
2022-08-05T17:48:55.942Z,100.00
2022-08-05T17:51:28.053Z,100.00
2022-08-05T17:54:08.136Z,100.00
2022-08-05T17:56:37.899Z,100.00
2022-08-05T17:59:05.751Z,100.00
2022-08-05T18:01:49.612Z,100.00
2022-08-05T18:04:21.058Z,100.00
2022-08-05T18:06:50.012Z,100.00
2022-08-05T18:09:18.095Z,100.00
2022-08-05T18:11:52.590Z,100.00
2022-08-05T18:14:20.888Z,100.00
2022-08-05T18:16:53.281Z,100.00
2022-08-05T18:19:25.855Z,100.00
2022-08-05T18:22:09.778Z,100.00
2022-08-05T18:24:40.282Z,100.00
2022-08-05T18:27:18.378Z,100.00
2022-08-05T18:29:51.910Z,100.00
2022-08-05T18:32:28.448Z,100.00
2022-08-05T18:34:59.195Z,100.00
2022-08-05T18:37:34.481Z,100.00
2022-08-05T18:41:49.974Z,100.00
2022-08-05T18:43:01.025Z,100.00
2022-08-05T18:45:41.875Z,100.00
2022-08-05T18:48:10.985Z,100.00
2022-08-05T18:51:01.623Z,100.00
2022-08-05T18:53:50.225Z,100.00
2022-08-05T18:56:21.731Z,100.00
2022-08-05T18:58:54.948Z,100.00
2022-08-05T19:01:47.760Z,100.00
2022-08-05T19:04:23.888Z,100.00
2022-08-05T19:06:53.978Z,100.00
2022-08-05T19:09:22.591Z,100.00
2022-08-05T19:12:00.327Z,100.00
2022-08-05T19:14:52.259Z,100.00
2022-08-05T19:17:23.823Z,100.00
2022-08-05T19:20:01.755Z,100.00
2022-08-05T19:22:32.673Z,100.00
2022-08-05T19:25:04.155Z,100.00
2022-08-05T19:27:36.687Z,100.00
2022-08-05T19:30:07.154Z,100.00
2022-08-05T19:32:38.073Z,100.00
2022-08-05T19:35:07.821Z,100.00
2022-08-05T19:38:06.187Z,100.00
2022-08-05T19:40:29.417Z,100.00
2022-08-05T19:43:05.039Z,100.00
2022-08-05T19:45:36.949Z,100.00
2022-08-05T19:48:05.852Z,100.00
2022-08-05T19:50:35.003Z,100.00
2022-08-05T19:53:09.298Z,100.00
2022-08-05T19:56:15.569Z,100.00
2022-08-05T19:58:30.469Z,100.00
2022-08-05T20:01:00.863Z,100.00
2022-08-05T20:03:38.795Z,100.00
2022-08-05T20:06:16.025Z,100.00
2022-08-05T20:09:06.063Z,100.00
2022-08-05T20:11:48.267Z,100.00
2022-08-05T20:14:26.767Z,100.00
2022-08-05T20:17:01.712Z,100.00
2022-08-05T20:19:36.209Z,100.00
2022-08-05T20:22:04.928Z,100.00
2022-08-05T20:24:34.408Z,100.00
2022-08-05T20:27:03.213Z,100.00
2022-08-05T20:29:57.910Z,100.00
2022-08-05T20:32:28.089Z,100.00
2022-08-05T20:34:58.359Z,100.00
2022-08-05T20:38:05.610Z,100.00
2022-08-05T20:40:19.797Z,100.00
2022-08-05T20:42:48.411Z,100.00
2022-08-05T20:45:16.408Z,100.00
2022-08-05T20:47:51.290Z,100.00
2022-08-05T20:50:19.902Z,100.00
2022-08-05T20:52:48.069Z,100.00
2022-08-05T20:56:07.213Z,100.00
2022-08-05T20:58:05.428Z,100.00
2022-08-05T21:00:44.386Z,100.00
2022-08-05T21:03:21.607Z,100.00
2022-08-05T21:05:53.680Z,100.00
2022-08-05T21:08:33.167Z,100.00
2022-08-05T21:11:15.272Z,100.00
2022-08-05T21:14:02.481Z,100.00
2022-08-05T21:16:36.872Z,100.00
2022-08-05T21:19:05.321Z,100.00
2022-08-05T21:21:43.849Z,100.00
2022-08-05T21:24:22.464Z,100.00
2022-08-05T21:26:56.148Z,100.00
2022-08-05T21:29:32.537Z,100.00
2022-08-05T21:32:08.882Z,100.00
2022-08-05T21:34:38.920Z,100.00
2022-08-05T21:37:09.297Z,100.00
2022-08-05T21:39:38.382Z,100.00
2022-08-05T21:42:30.691Z,100.00
2022-08-05T21:44:58.401Z,100.00
2022-08-05T21:47:54.836Z,100.00
2022-08-05T21:50:18.375Z,100.00
2022-08-05T21:52:50.365Z,100.00
2022-08-05T21:55:42.917Z,100.00
2022-08-05T21:58:12.180Z,100.00
2022-08-05T22:00:40.334Z,100.00
2022-08-05T22:03:16.486Z,100.00
2022-08-05T22:05:49.380Z,100.00
2022-08-05T22:08:24.250Z,100.00
2022-08-05T22:10:54.581Z,100.00
2022-08-05T22:14:32.385Z,100.00
2022-08-05T22:16:39.477Z,100.00
2022-08-05T22:19:15.058Z,100.00
2022-08-05T22:21:56.071Z,100.00
2022-08-05T22:24:53.434Z,100.00
2022-08-05T22:28:09.703Z,100.00
2022-08-05T22:30:35.798Z,100.00
2022-08-05T22:33:04.454Z,100.00
2022-08-05T22:35:49.257Z,100.00
2022-08-05T22:38:18.897Z,100.00
2022-08-05T22:40:55.230Z,100.00
2022-08-05T22:43:36.555Z,100.00
2022-08-05T22:46:13.285Z,100.00
2022-08-05T22:48:51.544Z,100.00
2022-08-05T22:51:23.243Z,100.00
2022-08-05T22:54:09.439Z,100.00
2022-08-05T22:56:41.367Z,100.00
2022-08-05T22:59:45.082Z,100.00
2022-08-05T23:02:06.129Z,100.00
2022-08-05T23:04:37.859Z,100.00
2022-08-05T23:07:06.964Z,100.00
2022-08-05T23:09:57.068Z,100.00
2022-08-05T23:12:29.003Z,100.00
2022-08-05T23:15:01.355Z,100.00
2022-08-05T23:17:37.869Z,100.00
2022-08-05T23:20:25.128Z,100.00
2022-08-05T23:22:58.801Z,100.00
2022-08-05T23:25:54.747Z,100.00
2022-08-05T23:28:19.254Z,100.00
2022-08-05T23:30:53.470Z,100.00
2022-08-05T23:34:05.690Z,100.00
2022-08-05T23:36:18.261Z,100.00
2022-08-05T23:38:49.032Z,100.00
2022-08-05T23:41:17.643Z,100.00
2022-08-05T23:44:04.626Z,100.00
2022-08-05T23:46:37.414Z,100.00
2022-08-05T23:49:15.859Z,100.00
2022-08-05T23:52:05.713Z,100.00
2022-08-05T23:54:38.630Z,100.00
2022-08-05T23:57:09.529Z,100.00
